sensor_id;sensor_type;location;lat;lon;timestamp;P1;durP1;ratioP1;P2;durP2;ratioP2
11486;SDS011;10510;47.942;9.442;2024-02-04T00:01:47;15.80;;;9.07;;
11486;SDS011;10510;47.942;9.442;2024-02-04T00:03:48;18.90;;;8.57;;
11486;SDS011;10510;47.942;9.442;2024-02-04T00:05:48;16.27;;;9.00;;
11486;SDS011;10510;47.942;9.442;2024-02-04T00:07:48;19.00;;;9.50;;
11486;SDS011;10510;47.942;9.442;2024-02-04T00:09:49;18.23;;;10.35;;
11486;SDS011;10510;47.942;9.442;2024-02-04T00:11:49;20.98;;;10.98;;
11486;SDS011;10510;47.942;9.442;2024-02-04T00:13:49;21.38;;;10.98;;
11486;SDS011;10510;47.942;9.442;2024-02-04T00:15:50;20.52;;;11.13;;
11486;SDS011;10510;47.942;9.442;2024-02-04T00:17:50;21.65;;;11.73;;
11486;SDS011;10510;47.942;9.442;2024-02-04T00:19:50;19.80;;;11.90;;
11486;SDS011;10510;47.942;9.442;2024-02-04T00:21:51;20.52;;;10.52;;
11486;SDS011;10510;47.942;9.442;2024-02-04T00:23:51;19.05;;;11.00;;
11486;SDS011;10510;47.942;9.442;2024-02-04T00:25:51;20.20;;;10.18;;
11486;SDS011;10510;47.942;9.442;2024-02-04T00:27:51;18.20;;;10.18;;
11486;SDS011;10510;47.942;9.442;2024-02-04T00:29:52;18.05;;;8.93;;
11486;SDS011;10510;47.942;9.442;2024-02-04T00:31:52;18.08;;;9.50;;
11486;SDS011;10510;47.942;9.442;2024-02-04T00:33:52;18.33;;;8.82;;
11486;SDS011;10510;47.942;9.442;2024-02-04T00:35:53;16.23;;;8.68;;
11486;SDS011;10510;47.942;9.442;2024-02-04T00:37:53;20.80;;;9.85;;
11486;SDS011;10510;47.942;9.442;2024-02-04T00:39:53;19.98;;;9.57;;
11486;SDS011;10510;47.942;9.442;2024-02-04T00:41:53;18.42;;;10.27;;
11486;SDS011;10510;47.942;9.442;2024-02-04T00:43:54;18.17;;;9.52;;
11486;SDS011;10510;47.942;9.442;2024-02-04T00:45:54;23.45;;;11.80;;
11486;SDS011;10510;47.942;9.442;2024-02-04T00:47:56;21.17;;;11.38;;
11486;SDS011;10510;47.942;9.442;2024-02-04T00:49:57;20.77;;;11.27;;
11486;SDS011;10510;47.942;9.442;2024-02-04T00:51:57;20.65;;;10.65;;
11486;SDS011;10510;47.942;9.442;2024-02-04T00:53:57;18.55;;;9.63;;
11486;SDS011;10510;47.942;9.442;2024-02-04T00:55:58;20.30;;;10.60;;
11486;SDS011;10510;47.942;9.442;2024-02-04T00:57:58;19.38;;;9.93;;
11486;SDS011;10510;47.942;9.442;2024-02-04T01:00:00;16.50;;;8.88;;
11486;SDS011;10510;47.942;9.442;2024-02-04T01:02:00;17.25;;;8.88;;
11486;SDS011;10510;47.942;9.442;2024-02-04T01:04:01;21.00;;;11.05;;
11486;SDS011;10510;47.942;9.442;2024-02-04T01:06:01;22.35;;;10.10;;
11486;SDS011;10510;47.942;9.442;2024-02-04T01:08:01;20.20;;;8.77;;
11486;SDS011;10510;47.942;9.442;2024-02-04T01:10:02;16.38;;;8.50;;
11486;SDS011;10510;47.942;9.442;2024-02-04T01:12:03;15.20;;;8.95;;
11486;SDS011;10510;47.942;9.442;2024-02-04T01:14:03;17.52;;;9.15;;
11486;SDS011;10510;47.942;9.442;2024-02-04T01:16:04;20.17;;;8.90;;
11486;SDS011;10510;47.942;9.442;2024-02-04T01:18:04;15.50;;;9.02;;
11486;SDS011;10510;47.942;9.442;2024-02-04T01:20:04;15.73;;;8.25;;
11486;SDS011;10510;47.942;9.442;2024-02-04T01:22:05;19.83;;;9.18;;
11486;SDS011;10510;47.942;9.442;2024-02-04T01:24:06;17.05;;;8.80;;
11486;SDS011;10510;47.942;9.442;2024-02-04T01:26:06;18.13;;;10.00;;
11486;SDS011;10510;47.942;9.442;2024-02-04T01:28:06;17.13;;;9.20;;
11486;SDS011;10510;47.942;9.442;2024-02-04T01:30:06;18.58;;;9.57;;
11486;SDS011;10510;47.942;9.442;2024-02-04T01:32:10;18.25;;;9.18;;
11486;SDS011;10510;47.942;9.442;2024-02-04T01:34:10;17.05;;;8.75;;
11486;SDS011;10510;47.942;9.442;2024-02-04T01:36:10;15.60;;;8.85;;
11486;SDS011;10510;47.942;9.442;2024-02-04T01:38:11;16.77;;;8.45;;
11486;SDS011;10510;47.942;9.442;2024-02-04T01:40:11;15.23;;;8.43;;
11486;SDS011;10510;47.942;9.442;2024-02-04T01:42:11;16.10;;;9.27;;
11486;SDS011;10510;47.942;9.442;2024-02-04T01:44:12;18.05;;;9.25;;
11486;SDS011;10510;47.942;9.442;2024-02-04T01:46:12;17.00;;;9.15;;
11486;SDS011;10510;47.942;9.442;2024-02-04T01:48:13;16.60;;;8.70;;
11486;SDS011;10510;47.942;9.442;2024-02-04T01:50:16;16.30;;;8.45;;
11486;SDS011;10510;47.942;9.442;2024-02-04T01:52:17;14.02;;;8.25;;
11486;SDS011;10510;47.942;9.442;2024-02-04T01:54:18;16.38;;;8.20;;
11486;SDS011;10510;47.942;9.442;2024-02-04T01:56:18;15.65;;;7.65;;
11486;SDS011;10510;47.942;9.442;2024-02-04T01:58:19;16.00;;;8.27;;
11486;SDS011;10510;47.942;9.442;2024-02-04T02:00:19;13.18;;;7.65;;
11486;SDS011;10510;47.942;9.442;2024-02-04T02:02:20;20.48;;;8.07;;
11486;SDS011;10510;47.942;9.442;2024-02-04T02:04:21;16.58;;;7.82;;
11486;SDS011;10510;47.942;9.442;2024-02-04T02:06:21;14.70;;;7.80;;
11486;SDS011;10510;47.942;9.442;2024-02-04T02:08:21;16.58;;;8.05;;
11486;SDS011;10510;47.942;9.442;2024-02-04T02:10:22;12.85;;;7.28;;
11486;SDS011;10510;47.942;9.442;2024-02-04T02:12:24;15.52;;;7.75;;
11486;SDS011;10510;47.942;9.442;2024-02-04T02:14:28;16.45;;;7.90;;
11486;SDS011;10510;47.942;9.442;2024-02-04T02:16:32;13.88;;;7.35;;
11486;SDS011;10510;47.942;9.442;2024-02-04T02:18:48;13.45;;;6.82;;
11486;SDS011;10510;47.942;9.442;2024-02-04T02:20:55;17.02;;;7.15;;
11486;SDS011;10510;47.942;9.442;2024-02-04T02:23:10;12.20;;;6.97;;
11486;SDS011;10510;47.942;9.442;2024-02-04T02:25:14;12.70;;;6.32;;
11486;SDS011;10510;47.942;9.442;2024-02-04T02:27:15;34.08;;;10.48;;
11486;SDS011;10510;47.942;9.442;2024-02-04T02:29:15;24.52;;;9.30;;
11486;SDS011;10510;47.942;9.442;2024-02-04T02:31:15;14.40;;;6.68;;
11486;SDS011;10510;47.942;9.442;2024-02-04T02:33:16;14.77;;;7.28;;
11486;SDS011;10510;47.942;9.442;2024-02-04T02:35:16;15.23;;;6.78;;
11486;SDS011;10510;47.942;9.442;2024-02-04T02:39:45;13.18;;;7.07;;
11486;SDS011;10510;47.942;9.442;2024-02-04T02:41:53;13.43;;;7.05;;
11486;SDS011;10510;47.942;9.442;2024-02-04T02:43:57;14.52;;;7.07;;
11486;SDS011;10510;47.942;9.442;2024-02-04T02:46:00;21.48;;;7.57;;
11486;SDS011;10510;47.942;9.442;2024-02-04T02:48:01;16.50;;;7.07;;
11486;SDS011;10510;47.942;9.442;2024-02-04T02:50:02;15.30;;;7.97;;
11486;SDS011;10510;47.942;9.442;2024-02-04T02:52:03;16.42;;;7.80;;
11486;SDS011;10510;47.942;9.442;2024-02-04T02:54:03;14.02;;;7.25;;
11486;SDS011;10510;47.942;9.442;2024-02-04T02:56:04;15.35;;;7.53;;
11486;SDS011;10510;47.942;9.442;2024-02-04T02:58:04;13.85;;;6.93;;
11486;SDS011;10510;47.942;9.442;2024-02-04T03:00:05;13.80;;;7.30;;
11486;SDS011;10510;47.942;9.442;2024-02-04T03:02:06;17.45;;;8.07;;
11486;SDS011;10510;47.942;9.442;2024-02-04T03:04:06;18.13;;;7.40;;
11486;SDS011;10510;47.942;9.442;2024-02-04T03:06:07;16.45;;;8.05;;
11486;SDS011;10510;47.942;9.442;2024-02-04T03:08:08;16.70;;;7.72;;
11486;SDS011;10510;47.942;9.442;2024-02-04T03:10:08;15.82;;;8.38;;
11486;SDS011;10510;47.942;9.442;2024-02-04T03:12:09;20.00;;;11.27;;
11486;SDS011;10510;47.942;9.442;2024-02-04T03:14:09;20.08;;;9.15;;
11486;SDS011;10510;47.942;9.442;2024-02-04T03:16:10;21.55;;;9.32;;
11486;SDS011;10510;47.942;9.442;2024-02-04T03:18:11;20.77;;;10.50;;
11486;SDS011;10510;47.942;9.442;2024-02-04T03:20:12;21.38;;;9.30;;
11486;SDS011;10510;47.942;9.442;2024-02-04T03:22:12;20.67;;;8.77;;
11486;SDS011;10510;47.942;9.442;2024-02-04T03:24:12;17.88;;;8.50;;
11486;SDS011;10510;47.942;9.442;2024-02-04T03:26:16;18.35;;;9.07;;
11486;SDS011;10510;47.942;9.442;2024-02-04T03:28:19;19.15;;;9.27;;
11486;SDS011;10510;47.942;9.442;2024-02-04T03:30:19;19.15;;;8.55;;
11486;SDS011;10510;47.942;9.442;2024-02-04T03:32:19;20.45;;;9.43;;
11486;SDS011;10510;47.942;9.442;2024-02-04T03:34:19;19.42;;;9.65;;
11486;SDS011;10510;47.942;9.442;2024-02-04T03:36:21;18.45;;;9.35;;
11486;SDS011;10510;47.942;9.442;2024-02-04T03:38:23;20.67;;;9.25;;
11486;SDS011;10510;47.942;9.442;2024-02-04T03:40:23;19.98;;;9.70;;
11486;SDS011;10510;47.942;9.442;2024-02-04T03:42:24;20.67;;;10.13;;
11486;SDS011;10510;47.942;9.442;2024-02-04T03:44:24;19.73;;;9.63;;
11486;SDS011;10510;47.942;9.442;2024-02-04T03:46:25;28.00;;;11.23;;
11486;SDS011;10510;47.942;9.442;2024-02-04T03:48:25;24.48;;;11.32;;
11486;SDS011;10510;47.942;9.442;2024-02-04T03:50:25;26.10;;;11.43;;
11486;SDS011;10510;47.942;9.442;2024-02-04T03:52:26;24.65;;;10.85;;
11486;SDS011;10510;47.942;9.442;2024-02-04T03:54:26;29.88;;;11.02;;
11486;SDS011;10510;47.942;9.442;2024-02-04T03:56:26;22.55;;;10.65;;
11486;SDS011;10510;47.942;9.442;2024-02-04T03:58:26;26.48;;;9.93;;
11486;SDS011;10510;47.942;9.442;2024-02-04T04:00:29;24.83;;;10.40;;
11486;SDS011;10510;47.942;9.442;2024-02-04T04:02:29;26.20;;;10.07;;
11486;SDS011;10510;47.942;9.442;2024-02-04T04:04:30;23.30;;;10.65;;
11486;SDS011;10510;47.942;9.442;2024-02-04T04:06:30;21.35;;;10.52;;
11486;SDS011;10510;47.942;9.442;2024-02-04T04:08:30;24.25;;;10.10;;
11486;SDS011;10510;47.942;9.442;2024-02-04T04:10:31;29.25;;;10.43;;
11486;SDS011;10510;47.942;9.442;2024-02-04T04:12:31;28.02;;;9.90;;
11486;SDS011;10510;47.942;9.442;2024-02-04T04:14:31;20.98;;;9.70;;
11486;SDS011;10510;47.942;9.442;2024-02-04T04:16:31;21.42;;;9.15;;
11486;SDS011;10510;47.942;9.442;2024-02-04T04:18:32;24.38;;;9.50;;
11486;SDS011;10510;47.942;9.442;2024-02-04T04:20:32;48.67;;;8.98;;
11486;SDS011;10510;47.942;9.442;2024-02-04T04:22:33;20.90;;;8.73;;
11486;SDS011;10510;47.942;9.442;2024-02-04T04:24:33;29.35;;;9.00;;
11486;SDS011;10510;47.942;9.442;2024-02-04T04:26:33;20.77;;;8.55;;
11486;SDS011;10510;47.942;9.442;2024-02-04T04:28:34;21.55;;;8.63;;
11486;SDS011;10510;47.942;9.442;2024-02-04T04:30:34;25.83;;;8.88;;
11486;SDS011;10510;47.942;9.442;2024-02-04T04:32:35;30.58;;;8.27;;
11486;SDS011;10510;47.942;9.442;2024-02-04T04:34:35;19.08;;;8.07;;
11486;SDS011;10510;47.942;9.442;2024-02-04T04:36:35;35.85;;;8.48;;
11486;SDS011;10510;47.942;9.442;2024-02-04T04:38:36;40.22;;;8.85;;
11486;SDS011;10510;47.942;9.442;2024-02-04T04:40:36;26.02;;;9.23;;
11486;SDS011;10510;47.942;9.442;2024-02-04T04:42:36;23.88;;;7.38;;
11486;SDS011;10510;47.942;9.442;2024-02-04T04:44:37;16.95;;;7.93;;
11486;SDS011;10510;47.942;9.442;2024-02-04T04:46:37;17.33;;;7.70;;
11486;SDS011;10510;47.942;9.442;2024-02-04T04:48:39;16.55;;;6.95;;
11486;SDS011;10510;47.942;9.442;2024-02-04T04:50:39;18.08;;;7.75;;
11486;SDS011;10510;47.942;9.442;2024-02-04T04:52:40;19.90;;;7.60;;
11486;SDS011;10510;47.942;9.442;2024-02-04T04:54:40;23.40;;;8.00;;
11486;SDS011;10510;47.942;9.442;2024-02-04T04:56:40;17.40;;;7.57;;
11486;SDS011;10510;47.942;9.442;2024-02-04T04:58:41;19.27;;;7.05;;
11486;SDS011;10510;47.942;9.442;2024-02-04T05:00:41;14.68;;;7.05;;
11486;SDS011;10510;47.942;9.442;2024-02-04T05:02:41;15.48;;;7.20;;
11486;SDS011;10510;47.942;9.442;2024-02-04T05:04:43;16.55;;;6.57;;
11486;SDS011;10510;47.942;9.442;2024-02-04T05:06:47;13.85;;;6.47;;
11486;SDS011;10510;47.942;9.442;2024-02-04T05:08:48;18.73;;;6.63;;
11486;SDS011;10510;47.942;9.442;2024-02-04T05:10:48;15.95;;;6.68;;
11486;SDS011;10510;47.942;9.442;2024-02-04T05:12:49;18.60;;;5.93;;
11486;SDS011;10510;47.942;9.442;2024-02-04T05:14:50;14.00;;;5.78;;
11486;SDS011;10510;47.942;9.442;2024-02-04T05:16:50;14.57;;;5.75;;
11486;SDS011;10510;47.942;9.442;2024-02-04T05:18:50;15.35;;;5.72;;
11486;SDS011;10510;47.942;9.442;2024-02-04T05:20:50;14.57;;;5.40;;
11486;SDS011;10510;47.942;9.442;2024-02-04T05:22:51;20.90;;;5.95;;
11486;SDS011;10510;47.942;9.442;2024-02-04T05:24:51;19.20;;;5.38;;
11486;SDS011;10510;47.942;9.442;2024-02-04T05:26:51;30.90;;;6.25;;
11486;SDS011;10510;47.942;9.442;2024-02-04T05:28:52;27.30;;;5.75;;
11486;SDS011;10510;47.942;9.442;2024-02-04T05:30:52;27.92;;;5.95;;
11486;SDS011;10510;47.942;9.442;2024-02-04T05:32:52;19.38;;;5.35;;
11486;SDS011;10510;47.942;9.442;2024-02-04T05:34:52;25.08;;;5.45;;
11486;SDS011;10510;47.942;9.442;2024-02-04T05:36:53;16.73;;;5.30;;
11486;SDS011;10510;47.942;9.442;2024-02-04T05:38:53;23.20;;;5.57;;
11486;SDS011;10510;47.942;9.442;2024-02-04T05:40:53;19.42;;;4.65;;
11486;SDS011;10510;47.942;9.442;2024-02-04T05:42:54;16.75;;;4.28;;
11486;SDS011;10510;47.942;9.442;2024-02-04T05:44:54;35.13;;;5.40;;
11486;SDS011;10510;47.942;9.442;2024-02-04T05:46:55;19.88;;;5.07;;
11486;SDS011;10510;47.942;9.442;2024-02-04T05:48:55;27.17;;;5.65;;
11486;SDS011;10510;47.942;9.442;2024-02-04T05:50:55;25.70;;;4.65;;
11486;SDS011;10510;47.942;9.442;2024-02-04T05:52:56;26.80;;;4.32;;
11486;SDS011;10510;47.942;9.442;2024-02-04T05:54:56;35.92;;;4.80;;
11486;SDS011;10510;47.942;9.442;2024-02-04T05:56:56;21.38;;;4.85;;
11486;SDS011;10510;47.942;9.442;2024-02-04T05:58:57;16.67;;;4.82;;
11486;SDS011;10510;47.942;9.442;2024-02-04T06:00:57;16.05;;;6.05;;
11486;SDS011;10510;47.942;9.442;2024-02-04T06:02:57;18.67;;;4.75;;
11486;SDS011;10510;47.942;9.442;2024-02-04T06:04:57;20.73;;;5.03;;
11486;SDS011;10510;47.942;9.442;2024-02-04T06:06:58;19.42;;;4.50;;
11486;SDS011;10510;47.942;9.442;2024-02-04T06:08:58;11.63;;;4.40;;
11486;SDS011;10510;47.942;9.442;2024-02-04T06:10:58;10.20;;;3.60;;
11486;SDS011;10510;47.942;9.442;2024-02-04T06:12:59;10.63;;;4.30;;
11486;SDS011;10510;47.942;9.442;2024-02-04T06:14:59;11.45;;;4.30;;
11486;SDS011;10510;47.942;9.442;2024-02-04T06:16:59;20.58;;;4.13;;
11486;SDS011;10510;47.942;9.442;2024-02-04T06:18:59;9.65;;;4.50;;
11486;SDS011;10510;47.942;9.442;2024-02-04T06:21:00;26.70;;;5.57;;
11486;SDS011;10510;47.942;9.442;2024-02-04T06:23:00;22.88;;;4.30;;
11486;SDS011;10510;47.942;9.442;2024-02-04T06:25:03;13.57;;;4.40;;
11486;SDS011;10510;47.942;9.442;2024-02-04T06:27:04;17.65;;;4.10;;
11486;SDS011;10510;47.942;9.442;2024-02-04T06:29:05;21.38;;;4.13;;
11486;SDS011;10510;47.942;9.442;2024-02-04T06:31:08;13.00;;;3.85;;
11486;SDS011;10510;47.942;9.442;2024-02-04T06:33:08;14.32;;;4.38;;
11486;SDS011;10510;47.942;9.442;2024-02-04T06:35:09;9.20;;;4.18;;
11486;SDS011;10510;47.942;9.442;2024-02-04T06:37:09;14.27;;;4.40;;
11486;SDS011;10510;47.942;9.442;2024-02-04T06:39:10;10.63;;;4.10;;
11486;SDS011;10510;47.942;9.442;2024-02-04T06:41:10;7.30;;;3.38;;
11486;SDS011;10510;47.942;9.442;2024-02-04T06:43:10;19.38;;;3.88;;
11486;SDS011;10510;47.942;9.442;2024-02-04T06:45:11;8.52;;;3.38;;
11486;SDS011;10510;47.942;9.442;2024-02-04T06:47:11;23.90;;;3.45;;
11486;SDS011;10510;47.942;9.442;2024-02-04T06:49:15;7.75;;;2.72;;
11486;SDS011;10510;47.942;9.442;2024-02-04T06:51:18;4.85;;;2.40;;
11486;SDS011;10510;47.942;9.442;2024-02-04T06:53:18;6.40;;;2.53;;
11486;SDS011;10510;47.942;9.442;2024-02-04T06:55:19;4.35;;;2.28;;
11486;SDS011;10510;47.942;9.442;2024-02-04T06:57:19;5.15;;;2.47;;
11486;SDS011;10510;47.942;9.442;2024-02-04T06:59:19;3.88;;;1.92;;
11486;SDS011;10510;47.942;9.442;2024-02-04T07:01:20;10.80;;;2.03;;
11486;SDS011;10510;47.942;9.442;2024-02-04T07:03:20;4.15;;;2.38;;
11486;SDS011;10510;47.942;9.442;2024-02-04T07:05:20;12.18;;;2.60;;
11486;SDS011;10510;47.942;9.442;2024-02-04T07:07:22;6.70;;;2.63;;
11486;SDS011;10510;47.942;9.442;2024-02-04T07:09:22;11.50;;;3.40;;
11486;SDS011;10510;47.942;9.442;2024-02-04T07:11:22;5.30;;;2.40;;
11486;SDS011;10510;47.942;9.442;2024-02-04T07:13:24;7.70;;;3.58;;
11486;SDS011;10510;47.942;9.442;2024-02-04T07:15:24;6.72;;;3.05;;
11486;SDS011;10510;47.942;9.442;2024-02-04T07:17:24;6.22;;;2.40;;
11486;SDS011;10510;47.942;9.442;2024-02-04T07:19:25;11.43;;;2.47;;
11486;SDS011;10510;47.942;9.442;2024-02-04T07:21:25;7.10;;;2.72;;
11486;SDS011;10510;47.942;9.442;2024-02-04T07:23:25;12.60;;;2.28;;
11486;SDS011;10510;47.942;9.442;2024-02-04T07:25:25;9.02;;;3.03;;
11486;SDS011;10510;47.942;9.442;2024-02-04T07:27:26;9.00;;;3.47;;
11486;SDS011;10510;47.942;9.442;2024-02-04T07:29:26;7.35;;;3.13;;
11486;SDS011;10510;47.942;9.442;2024-02-04T07:31:26;5.40;;;2.55;;
11486;SDS011;10510;47.942;9.442;2024-02-04T07:33:27;3.70;;;2.28;;
11486;SDS011;10510;47.942;9.442;2024-02-04T07:35:27;13.98;;;2.80;;
11486;SDS011;10510;47.942;9.442;2024-02-04T07:37:27;7.15;;;3.20;;
11486;SDS011;10510;47.942;9.442;2024-02-04T07:39:27;31.50;;;12.13;;
11486;SDS011;10510;47.942;9.442;2024-02-04T07:41:30;12.05;;;5.32;;
11486;SDS011;10510;47.942;9.442;2024-02-04T07:43:31;6.63;;;3.42;;
11486;SDS011;10510;47.942;9.442;2024-02-04T07:45:31;7.13;;;4.22;;
11486;SDS011;10510;47.942;9.442;2024-02-04T07:47:32;9.98;;;4.35;;
11486;SDS011;10510;47.942;9.442;2024-02-04T07:49:32;9.45;;;2.95;;
11486;SDS011;10510;47.942;9.442;2024-02-04T07:51:32;6.28;;;3.35;;
11486;SDS011;10510;47.942;9.442;2024-02-04T07:53:35;9.15;;;3.03;;
11486;SDS011;10510;47.942;9.442;2024-02-04T07:55:36;10.20;;;4.65;;
11486;SDS011;10510;47.942;9.442;2024-02-04T07:57:36;5.97;;;2.97;;
11486;SDS011;10510;47.942;9.442;2024-02-04T07:59:36;8.45;;;3.90;;
11486;SDS011;10510;47.942;9.442;2024-02-04T08:01:37;8.15;;;4.50;;
11486;SDS011;10510;47.942;9.442;2024-02-04T08:03:37;7.80;;;4.22;;
11486;SDS011;10510;47.942;9.442;2024-02-04T08:05:37;5.20;;;3.45;;
11486;SDS011;10510;47.942;9.442;2024-02-04T08:07:38;7.20;;;3.53;;
11486;SDS011;10510;47.942;9.442;2024-02-04T08:09:38;4.18;;;2.47;;
11486;SDS011;10510;47.942;9.442;2024-02-04T08:11:38;5.10;;;2.70;;
11486;SDS011;10510;47.942;9.442;2024-02-04T08:13:39;8.38;;;3.60;;
11486;SDS011;10510;47.942;9.442;2024-02-04T08:15:39;16.15;;;7.32;;
11486;SDS011;10510;47.942;9.442;2024-02-04T08:17:39;10.93;;;6.05;;
11486;SDS011;10510;47.942;9.442;2024-02-04T08:19:40;11.25;;;5.43;;
11486;SDS011;10510;47.942;9.442;2024-02-04T08:21:41;4.93;;;2.70;;
11486;SDS011;10510;47.942;9.442;2024-02-04T08:23:41;5.90;;;2.97;;
11486;SDS011;10510;47.942;9.442;2024-02-04T08:25:42;7.45;;;3.20;;
11486;SDS011;10510;47.942;9.442;2024-02-04T08:27:42;6.97;;;3.00;;
11486;SDS011;10510;47.942;9.442;2024-02-04T08:29:42;5.07;;;2.70;;
11486;SDS011;10510;47.942;9.442;2024-02-04T08:31:43;5.25;;;2.80;;
11486;SDS011;10510;47.942;9.442;2024-02-04T08:33:43;4.65;;;2.58;;
11486;SDS011;10510;47.942;9.442;2024-02-04T08:35:44;4.93;;;2.30;;
11486;SDS011;10510;47.942;9.442;2024-02-04T08:37:44;4.55;;;2.42;;
11486;SDS011;10510;47.942;9.442;2024-02-04T08:39:44;6.85;;;3.95;;
11486;SDS011;10510;47.942;9.442;2024-02-04T08:41:45;7.72;;;2.75;;
11486;SDS011;10510;47.942;9.442;2024-02-04T08:43:45;6.78;;;3.25;;
11486;SDS011;10510;47.942;9.442;2024-02-04T08:45:45;8.68;;;4.45;;
11486;SDS011;10510;47.942;9.442;2024-02-04T08:47:46;10.50;;;3.15;;
11486;SDS011;10510;47.942;9.442;2024-02-04T08:49:46;7.07;;;2.58;;
11486;SDS011;10510;47.942;9.442;2024-02-04T08:51:46;10.23;;;4.57;;
11486;SDS011;10510;47.942;9.442;2024-02-04T08:53:47;4.80;;;2.88;;
11486;SDS011;10510;47.942;9.442;2024-02-04T08:55:47;3.22;;;2.28;;
11486;SDS011;10510;47.942;9.442;2024-02-04T08:57:47;7.82;;;3.40;;
11486;SDS011;10510;47.942;9.442;2024-02-04T08:59:48;5.13;;;3.13;;
11486;SDS011;10510;47.942;9.442;2024-02-04T09:01:48;5.13;;;2.63;;
11486;SDS011;10510;47.942;9.442;2024-02-04T09:03:48;5.05;;;2.75;;
11486;SDS011;10510;47.942;9.442;2024-02-04T09:05:49;11.15;;;3.90;;
11486;SDS011;10510;47.942;9.442;2024-02-04T09:07:49;7.30;;;3.65;;
11486;SDS011;10510;47.942;9.442;2024-02-04T09:09:50;5.65;;;3.03;;
11486;SDS011;10510;47.942;9.442;2024-02-04T09:11:50;4.53;;;2.10;;
11486;SDS011;10510;47.942;9.442;2024-02-04T09:13:50;3.15;;;1.90;;
11486;SDS011;10510;47.942;9.442;2024-02-04T09:15:50;4.35;;;2.00;;
11486;SDS011;10510;47.942;9.442;2024-02-04T09:17:51;4.60;;;2.55;;
11486;SDS011;10510;47.942;9.442;2024-02-04T09:19:51;24.27;;;10.20;;
11486;SDS011;10510;47.942;9.442;2024-02-04T09:21:51;3.83;;;2.63;;
11486;SDS011;10510;47.942;9.442;2024-02-04T09:23:52;3.38;;;2.30;;
11486;SDS011;10510;47.942;9.442;2024-02-04T09:25:52;5.57;;;2.13;;
11486;SDS011;10510;47.942;9.442;2024-02-04T09:27:52;2.58;;;1.67;;
11486;SDS011;10510;47.942;9.442;2024-02-04T09:29:53;5.15;;;2.03;;
11486;SDS011;10510;47.942;9.442;2024-02-04T09:31:55;4.07;;;2.10;;
11486;SDS011;10510;47.942;9.442;2024-02-04T09:33:55;4.78;;;2.10;;
11486;SDS011;10510;47.942;9.442;2024-02-04T09:35:55;4.70;;;2.20;;
11486;SDS011;10510;47.942;9.442;2024-02-04T09:37:56;2.50;;;1.70;;
11486;SDS011;10510;47.942;9.442;2024-02-04T09:39:56;3.63;;;1.77;;
11486;SDS011;10510;47.942;9.442;2024-02-04T09:41:56;3.15;;;2.03;;
11486;SDS011;10510;47.942;9.442;2024-02-04T09:43:56;7.28;;;1.98;;
11486;SDS011;10510;47.942;9.442;2024-02-04T09:46:01;3.00;;;1.80;;
11486;SDS011;10510;47.942;9.442;2024-02-04T09:48:01;3.00;;;1.50;;
11486;SDS011;10510;47.942;9.442;2024-02-04T09:50:02;2.92;;;1.48;;
11486;SDS011;10510;47.942;9.442;2024-02-04T09:52:04;2.35;;;1.63;;
11486;SDS011;10510;47.942;9.442;2024-02-04T09:54:09;3.00;;;1.60;;
11486;SDS011;10510;47.942;9.442;2024-02-04T09:56:11;3.17;;;1.33;;
11486;SDS011;10510;47.942;9.442;2024-02-04T09:58:12;6.28;;;1.40;;
11486;SDS011;10510;47.942;9.442;2024-02-04T10:00:12;3.38;;;1.48;;
11486;SDS011;10510;47.942;9.442;2024-02-04T10:02:13;3.42;;;1.20;;
11486;SDS011;10510;47.942;9.442;2024-02-04T10:04:13;2.35;;;1.10;;
11486;SDS011;10510;47.942;9.442;2024-02-04T10:06:14;4.45;;;1.48;;
11486;SDS011;10510;47.942;9.442;2024-02-04T10:08:14;1.73;;;1.10;;
11486;SDS011;10510;47.942;9.442;2024-02-04T10:10:15;1.52;;;0.88;;
11486;SDS011;10510;47.942;9.442;2024-02-04T10:12:15;1.70;;;1.20;;
11486;SDS011;10510;47.942;9.442;2024-02-04T10:14:17;2.22;;;1.25;;
11486;SDS011;10510;47.942;9.442;2024-02-04T10:16:19;3.47;;;1.00;;
11486;SDS011;10510;47.942;9.442;2024-02-04T10:18:20;1.90;;;1.00;;
11486;SDS011;10510;47.942;9.442;2024-02-04T10:20:21;2.20;;;1.20;;
11486;SDS011;10510;47.942;9.442;2024-02-04T10:22:21;4.90;;;1.27;;
11486;SDS011;10510;47.942;9.442;2024-02-04T10:24:22;2.55;;;1.25;;
11486;SDS011;10510;47.942;9.442;2024-02-04T10:26:22;2.25;;;1.38;;
11486;SDS011;10510;47.942;9.442;2024-02-04T10:28:22;1.45;;;1.20;;
11486;SDS011;10510;47.942;9.442;2024-02-04T10:30:23;5.70;;;1.33;;
11486;SDS011;10510;47.942;9.442;2024-02-04T10:32:23;1.63;;;0.90;;
11486;SDS011;10510;47.942;9.442;2024-02-04T10:34:27;1.38;;;0.90;;
11486;SDS011;10510;47.942;9.442;2024-02-04T10:36:29;1.38;;;1.27;;
11486;SDS011;10510;47.942;9.442;2024-02-04T10:38:31;1.65;;;1.05;;
11486;SDS011;10510;47.942;9.442;2024-02-04T10:40:34;2.92;;;1.05;;
11486;SDS011;10510;47.942;9.442;2024-02-04T10:42:34;2.33;;;1.20;;
11486;SDS011;10510;47.942;9.442;2024-02-04T10:44:35;1.90;;;0.90;;
11486;SDS011;10510;47.942;9.442;2024-02-04T10:46:36;1.17;;;0.77;;
11486;SDS011;10510;47.942;9.442;2024-02-04T10:48:41;1.48;;;0.90;;
11486;SDS011;10510;47.942;9.442;2024-02-04T10:50:44;2.20;;;0.90;;
11486;SDS011;10510;47.942;9.442;2024-02-04T10:52:49;1.80;;;0.82;;
11486;SDS011;10510;47.942;9.442;2024-02-04T10:54:50;3.35;;;0.85;;
11486;SDS011;10510;47.942;9.442;2024-02-04T10:56:56;1.00;;;0.80;;
11486;SDS011;10510;47.942;9.442;2024-02-04T10:59:02;6.07;;;1.10;;
11486;SDS011;10510;47.942;9.442;2024-02-04T11:01:04;2.72;;;1.00;;
11486;SDS011;10510;47.942;9.442;2024-02-04T11:03:06;4.35;;;1.13;;
11486;SDS011;10510;47.942;9.442;2024-02-04T11:05:07;2.58;;;0.95;;
11486;SDS011;10510;47.942;9.442;2024-02-04T11:07:09;4.95;;;1.08;;
11486;SDS011;10510;47.942;9.442;2024-02-04T11:09:11;1.85;;;1.00;;
11486;SDS011;10510;47.942;9.442;2024-02-04T11:11:14;1.10;;;0.70;;
11486;SDS011;10510;47.942;9.442;2024-02-04T11:13:15;3.58;;;0.98;;
11486;SDS011;10510;47.942;9.442;2024-02-04T11:15:19;0.85;;;0.60;;
11486;SDS011;10510;47.942;9.442;2024-02-04T11:17:30;2.15;;;0.90;;
11486;SDS011;10510;47.942;9.442;2024-02-04T11:26:04;5.63;;;1.05;;
11486;SDS011;10510;47.942;9.442;2024-02-04T11:28:05;0.77;;;0.77;;
11486;SDS011;10510;47.942;9.442;2024-02-04T11:30:06;4.57;;;1.05;;
11486;SDS011;10510;47.942;9.442;2024-02-04T11:32:10;3.33;;;0.77;;
11486;SDS011;10510;47.942;9.442;2024-02-04T11:34:12;2.63;;;1.00;;
11486;SDS011;10510;47.942;9.442;2024-02-04T11:36:13;1.33;;;0.75;;
11486;SDS011;10510;47.942;9.442;2024-02-04T11:38:18;2.08;;;1.00;;
11486;SDS011;10510;47.942;9.442;2024-02-04T11:40:18;1.15;;;0.70;;
11486;SDS011;10510;47.942;9.442;2024-02-04T11:42:22;2.53;;;0.98;;
11486;SDS011;10510;47.942;9.442;2024-02-04T11:44:31;2.25;;;0.70;;
11486;SDS011;10510;47.942;9.442;2024-02-04T11:46:31;1.80;;;0.77;;
11486;SDS011;10510;47.942;9.442;2024-02-04T11:48:34;1.52;;;0.80;;
11486;SDS011;10510;47.942;9.442;2024-02-04T11:50:38;2.65;;;0.77;;
11486;SDS011;10510;47.942;9.442;2024-02-04T11:52:39;4.47;;;0.90;;
11486;SDS011;10510;47.942;9.442;2024-02-04T11:54:41;6.22;;;1.50;;
11486;SDS011;10510;47.942;9.442;2024-02-04T11:56:42;1.83;;;1.00;;
11486;SDS011;10510;47.942;9.442;2024-02-04T11:58:43;2.97;;;0.90;;
11486;SDS011;10510;47.942;9.442;2024-02-04T12:00:44;5.97;;;1.95;;
11486;SDS011;10510;47.942;9.442;2024-02-04T12:02:45;3.40;;;0.90;;
11486;SDS011;10510;47.942;9.442;2024-02-04T12:04:46;2.38;;;1.10;;
11486;SDS011;10510;47.942;9.442;2024-02-04T12:06:47;1.77;;;0.93;;
11486;SDS011;10510;47.942;9.442;2024-02-04T12:08:48;1.80;;;1.02;;
11486;SDS011;10510;47.942;9.442;2024-02-04T12:10:49;9.52;;;1.25;;